Time;durP1;ratioP1;P1;durP2;ratioP2;P2;SDS_P1;SDS_P2;PMS_P1;PMS_P2;Temp;Humidity;BMP_temperature;BMP_pressure;BME280_temperature;BME280_humidity;BME280_pressure;Samples;Min_cycle;Max_cycle;Signal;HPM_P1;HPM_P2
2022/01/12 00:01:38;;;;;;;105.68;52.47;;;0.00;99.90;;;;;;4936373;29;20418;-82
2022/01/12 00:04:03;;;;;;;106.33;53.10;;;-0.10;99.90;;;;;;4939264;29;20402;-83
2022/01/12 00:06:29;;;;;;;108.70;53.00;;;-0.20;99.90;;;;;;4930738;29;20401;-81
2022/01/12 00:08:55;;;;;;;92.80;48.67;;;-0.20;99.90;;;;;;4930424;29;20398;-82
2022/01/12 00:11:22;;;;;;;84.82;44.47;;;-0.20;99.90;;;;;;4929477;29;20425;-83
2022/01/12 00:13:51;;;;;;;82.15;43.38;;;-0.40;99.90;;;;;;4926616;29;20467;-81
2022/01/12 00:16:17;;;;;;;91.82;46.35;;;-0.40;99.90;;;;;;4928793;29;20498;-81
2022/01/12 00:18:45;;;;;;;94.28;46.85;;;-0.50;99.90;;;;;;4929014;29;20497;-83
2022/01/12 00:21:12;;;;;;;90.45;46.50;;;-0.50;99.90;;;;;;4928033;29;20463;-81
2022/01/12 00:23:38;;;;;;;91.70;47.05;;;-0.50;99.90;;;;;;4931123;29;20402;-81
2022/01/12 00:26:11;;;;;;;103.70;50.97;;;-0.30;99.90;;;;;;4931789;28;20567;-83
2022/01/12 00:34:08;;;;;;;94.20;49.78;;;-0.20;99.90;;;;;;4931922;29;20428;-82
2022/01/12 00:36:35;;;;;;;97.00;48.88;;;-0.10;99.90;;;;;;4930759;29;20386;-80
2022/01/12 00:39:03;;;;;;;93.78;48.15;;;-0.10;99.90;;;;;;4931141;29;20734;-82
2022/01/12 00:41:28;;;;;;;98.28;50.60;;;-0.10;99.90;;;;;;4946199;29;20402;-81
2022/01/12 00:43:58;;;;;;;103.15;52.25;;;-0.20;99.90;;;;;;4930273;29;20541;-82
2022/01/12 00:46:26;;;;;;;110.90;54.78;;;-0.20;99.90;;;;;;4946174;29;20568;-82
2022/01/12 00:48:54;;;;;;;107.63;54.50;;;-0.30;99.90;;;;;;4913687;29;20401;-80
2022/01/12 00:51:21;;;;;;;119.25;57.10;;;-0.30;99.90;;;;;;4926270;29;20533;-81
2022/01/12 00:53:47;;;;;;;111.82;55.47;;;-0.30;99.90;;;;;;4918864;29;20390;-82
2022/01/12 00:56:13;;;;;;;111.57;54.97;;;-0.30;99.90;;;;;;4929769;28;20457;-81
2022/01/12 00:58:38;;;;;;;108.45;54.05;;;-0.20;99.90;;;;;;4930373;29;20480;-80
2022/01/12 01:01:04;;;;;;;109.18;54.22;;;-0.10;99.90;;;;;;4934322;29;20396;-80
2022/01/12 01:03:31;;;;;;;109.18;56.17;;;-0.20;99.90;;;;;;4949117;28;20404;-82
2022/01/12 01:05:57;;;;;;;116.00;54.77;;;-0.10;99.90;;;;;;4937056;29;20448;-82
2022/01/12 01:08:23;;;;;;;106.53;52.67;;;-0.10;99.90;;;;;;4926101;29;20400;-81
2022/01/12 01:10:51;;;;;;;107.63;54.10;;;-0.10;99.90;;;;;;4944430;28;20418;-80
2022/01/12 01:13:23;;;;;;;107.93;54.45;;;-0.10;99.90;;;;;;4936987;29;20397;-80
2022/01/12 01:16:04;;;;;;;111.63;55.08;;;0.00;99.90;;;;;;4952208;29;20754;-79
2022/01/12 01:26:46;;;;;;;107.30;55.63;;;0.00;99.90;;;;;;4933049;29;20429;-83
2022/01/12 01:29:12;;;;;;;112.50;56.20;;;0.00;99.90;;;;;;4934300;29;20382;-82
2022/01/12 01:31:39;;;;;;;107.10;53.90;;;0.00;99.90;;;;;;4934169;29;20398;-82
2022/01/12 01:34:09;;;;;;;106.53;54.42;;;-0.10;99.90;;;;;;4944924;29;20400;-82
2022/01/12 01:36:38;;;;;;;105.63;54.97;;;-0.10;99.90;;;;;;4939743;29;20434;-83
2022/01/12 01:39:06;;;;;;;116.22;57.97;;;-0.10;99.90;;;;;;4953006;29;20480;-83
2022/01/12 01:41:31;;;;;;;102.18;54.17;;;-0.30;99.90;;;;;;4954315;28;20399;-81
2022/01/12 01:54:52;;;;;;;123.68;60.38;;;-0.20;99.90;;;;;;4934267;29;20401;-81
2022/01/12 01:57:18;;;;;;;129.20;61.73;;;-0.20;99.90;;;;;;4932544;28;20524;-81
2022/01/12 01:59:45;;;;;;;126.60;62.23;;;-0.20;99.90;;;;;;4933514;29;20455;-83
2022/01/12 02:02:12;;;;;;;125.53;61.90;;;-0.20;99.90;;;;;;4932097;29;20416;-83
2022/01/12 02:04:38;;;;;;;132.65;65.13;;;-0.10;99.90;;;;;;4947301;29;20398;-79
2022/01/12 02:07:03;;;;;;;140.00;66.85;;;-0.10;99.90;;;;;;4933125;29;20386;-82
2022/01/12 02:09:29;;;;;;;131.93;64.72;;;-0.10;99.90;;;;;;4931689;29;20406;-83
2022/01/12 02:11:55;;;;;;;127.38;64.50;;;-0.10;99.90;;;;;;4928874;29;20411;-82
2022/01/12 02:14:20;;;;;;;140.95;67.75;;;-0.10;99.90;;;;;;4919326;29;20753;-83
2022/01/12 02:17:05;;;;;;;149.45;71.03;;;-0.10;99.90;;;;;;4932766;29;20409;-82
2022/01/12 02:36:14;;;;;;;155.82;72.43;;;0.00;99.90;;;;;;4932088;29;20493;-80
2022/01/12 02:41:24;;;;;;;148.70;70.07;;;0.10;99.90;;;;;;4932527;28;20460;-81
2022/01/12 02:54:43;;;;;;;153.30;72.30;;;0.20;99.90;;;;;;4933016;29;20382;-82
2022/01/12 02:57:09;;;;;;;144.65;71.50;;;0.20;99.90;;;;;;4931412;28;20421;-80
2022/01/12 02:59:36;;;;;;;152.87;72.73;;;0.30;99.90;;;;;;4932200;29;20423;-82
2022/01/12 03:02:19;;;;;;;146.80;68.43;;;0.30;99.90;;;;;;4931845;29;20868;-81
2022/01/12 03:05:01;;;;;;;142.20;68.95;;;0.20;99.90;;;;;;4931520;29;20496;-79
2022/01/12 03:07:31;;;;;;;140.60;67.80;;;0.30;99.90;;;;;;4931037;29;20456;-83
2022/01/12 03:09:57;;;;;;;144.40;67.85;;;0.30;99.90;;;;;;4928591;29;20518;-81
2022/01/12 03:12:23;;;;;;;134.43;65.20;;;0.20;99.90;;;;;;4941958;29;20474;-81
2022/01/12 03:14:48;;;;;;;143.20;68.87;;;0.20;99.90;;;;;;4932017;29;20911;-81
2022/01/12 03:17:15;;;;;;;139.27;66.80;;;0.10;99.90;;;;;;4933050;29;20742;-82
2022/01/12 03:19:41;;;;;;;139.70;67.22;;;0.20;99.90;;;;;;4933894;29;20490;-80
2022/01/12 03:22:07;;;;;;;137.93;67.18;;;0.20;99.90;;;;;;4957487;29;20393;-81
2022/01/12 03:24:33;;;;;;;142.40;67.37;;;0.20;99.90;;;;;;4953238;29;20488;-81
2022/01/12 03:26:58;;;;;;;134.83;65.87;;;0.20;99.90;;;;;;4927204;29;20790;-81
2022/01/12 03:29:24;;;;;;;137.00;66.93;;;0.30;99.90;;;;;;4944230;29;20928;-81
2022/01/12 03:31:50;;;;;;;134.32;65.88;;;0.30;99.90;;;;;;4930503;29;20410;-81
2022/01/12 03:37:17;;;;;;;132.17;65.67;;;0.30;99.90;;;;;;4931881;29;20402;-81
2022/01/12 03:39:41;;;;;;;131.15;63.17;;;0.30;99.90;;;;;;4931668;29;20414;-80
2022/01/12 03:42:06;;;;;;;137.20;66.40;;;0.20;99.90;;;;;;4931660;28;20856;-79
2022/01/12 03:44:32;;;;;;;129.52;64.03;;;0.10;99.90;;;;;;4931079;29;20390;-80
2022/01/12 03:46:58;;;;;;;132.23;63.53;;;0.10;99.90;;;;;;4931335;29;20410;-80
2022/01/12 03:49:23;;;;;;;124.43;61.47;;;0.10;99.90;;;;;;4926624;29;21578;-80
2022/01/12 03:51:49;;;;;;;131.93;63.07;;;0.20;99.90;;;;;;4919854;29;20405;-81
2022/01/12 03:54:15;;;;;;;122.60;60.67;;;0.10;99.90;;;;;;4932353;29;20746;-78
2022/01/12 03:56:42;;;;;;;128.88;63.05;;;0.20;99.90;;;;;;4931565;28;20398;-81
2022/01/12 03:59:07;;;;;;;126.93;62.50;;;0.10;99.90;;;;;;4931667;29;20389;-82
2022/01/12 04:01:35;;;;;;;120.27;60.87;;;0.10;99.90;;;;;;4931422;29;20390;-81
2022/01/12 04:04:05;;;;;;;124.27;61.77;;;0.20;99.90;;;;;;4929498;29;20971;-80
2022/01/12 04:09:16;;;;;;;127.15;62.05;;;0.30;99.90;;;;;;4931676;29;20423;-82
2022/01/12 04:11:42;;;;;;;119.35;60.28;;;0.20;99.90;;;;;;4929518;28;20422;-81
2022/01/12 04:14:08;;;;;;;116.57;59.17;;;0.30;99.90;;;;;;4943336;29;20431;-81
2022/01/12 04:16:35;;;;;;;113.57;58.35;;;0.20;99.90;;;;;;4950510;29;20381;-81
2022/01/12 04:19:00;;;;;;;130.70;62.08;;;0.20;99.90;;;;;;4931101;29;20436;-81
2022/01/12 04:21:30;;;;;;;126.00;63.83;;;0.20;99.90;;;;;;4931339;29;20426;-81
2022/01/12 04:23:58;;;;;;;138.70;66.82;;;0.30;99.90;;;;;;4930884;29;20402;-80
2022/01/12 04:26:26;;;;;;;128.60;64.28;;;0.30;99.90;;;;;;4930028;29;20406;-79
2022/01/12 04:28:52;;;;;;;119.93;60.47;;;0.40;99.90;;;;;;4931251;28;20417;-81
2022/01/12 04:31:18;;;;;;;111.78;59.65;;;0.40;99.90;;;;;;4931141;29;20410;-81
2022/01/12 04:33:45;;;;;;;115.13;58.60;;;0.40;99.90;;;;;;4930420;29;20829;-82
2022/01/12 04:36:12;;;;;;;115.97;58.42;;;0.40;99.90;;;;;;4939574;29;20386;-81
2022/01/12 04:38:40;;;;;;;119.15;58.25;;;0.40;99.90;;;;;;4931321;29;20401;-82
2022/01/12 04:41:08;;;;;;;115.28;57.50;;;0.40;99.90;;;;;;4929692;29;20469;-81
2022/01/12 04:43:35;;;;;;;115.90;57.27;;;0.30;99.90;;;;;;4930820;28;20466;-80
2022/01/12 04:48:35;;;;;;;109.95;55.40;;;0.20;99.90;;;;;;4934682;29;20386;-81
2022/01/12 04:51:01;;;;;;;111.70;55.20;;;0.10;99.90;;;;;;4933619;29;20477;-80
2022/01/12 04:53:27;;;;;;;114.00;56.50;;;0.20;99.90;;;;;;4932903;29;20398;-82
2022/01/12 04:55:53;;;;;;;109.97;55.63;;;0.20;99.90;;;;;;4933566;29;20472;-81
2022/01/12 04:58:20;;;;;;;105.85;53.85;;;0.30;99.90;;;;;;4933473;28;20409;-81
2022/01/12 05:00:47;;;;;;;109.97;55.60;;;0.30;99.90;;;;;;4933352;29;20405;-82
2022/01/12 05:13:54;;;;;;;108.70;52.65;;;0.40;99.90;;;;;;4934200;28;20404;-81
2022/01/12 05:16:21;;;;;;;105.78;52.50;;;0.50;99.90;;;;;;4932453;29;20480;-81
2022/01/12 05:18:48;;;;;;;110.72;51.83;;;0.40;99.90;;;;;;4929332;29;20395;-81
2022/01/12 05:21:16;;;;;;;108.18;52.58;;;0.40;99.90;;;;;;4927592;29;20405;-80
2022/01/12 05:23:41;;;;;;;109.05;54.85;;;0.40;99.90;;;;;;4929121;29;20403;-83
2022/01/12 05:26:08;;;;;;;106.37;52.67;;;0.40;99.90;;;;;;4932778;29;20420;-82
2022/01/12 05:28:34;;;;;;;102.03;51.17;;;0.50;99.90;;;;;;4933794;28;20408;-82
2022/01/12 05:31:01;;;;;;;104.90;53.55;;;0.50;99.90;;;;;;4934042;29;20768;-81
2022/01/12 05:33:28;;;;;;;104.38;52.50;;;0.50;99.90;;;;;;4929267;29;20462;-81
2022/01/12 05:35:55;;;;;;;102.53;52.42;;;0.60;99.90;;;;;;4948102;29;20416;-82
2022/01/12 05:38:21;;;;;;;107.60;52.45;;;0.50;99.90;;;;;;4933594;29;20393;-81
2022/01/12 05:40:53;;;;;;;102.45;50.65;;;0.60;99.90;;;;;;4932586;29;20753;-81
2022/01/12 05:43:25;;;;;;;102.18;49.67;;;0.60;99.90;;;;;;4932540;29;20441;-82
2022/01/12 05:45:53;;;;;;;103.35;50.72;;;0.50;99.90;;;;;;4929097;29;20752;-83
2022/01/12 05:50:48;;;;;;;100.43;50.28;;;0.40;99.90;;;;;;4933265;29;20430;-81
2022/01/12 05:53:15;;;;;;;102.57;51.55;;;0.40;99.90;;;;;;4933684;29;20390;-82
2022/01/12 05:55:41;;;;;;;102.43;49.42;;;0.40;99.90;;;;;;4932648;29;20398;-82
2022/01/12 05:58:07;;;;;;;103.53;50.23;;;0.40;99.90;;;;;;4933496;28;20410;-82
2022/01/12 06:00:34;;;;;;;107.20;51.83;;;0.40;99.90;;;;;;4933858;29;20740;-81
2022/01/12 06:03:00;;;;;;;103.15;50.88;;;0.40;99.90;;;;;;4933508;29;20465;-83
2022/01/12 06:05:28;;;;;;;102.20;50.75;;;0.30;99.90;;;;;;4933414;29;20389;-81
2022/01/12 06:07:54;;;;;;;101.60;49.63;;;0.30;99.90;;;;;;4934704;29;20386;-81
2022/01/12 06:10:23;;;;;;;104.30;51.58;;;0.30;99.90;;;;;;4933565;29;20409;-82
2022/01/12 06:12:50;;;;;;;99.65;50.47;;;0.40;99.90;;;;;;4931913;29;20410;-82
2022/01/12 06:15:16;;;;;;;101.05;49.55;;;0.30;99.90;;;;;;4932010;29;20441;-80
2022/01/12 06:17:42;;;;;;;96.35;47.95;;;0.30;99.90;;;;;;4931865;29;20418;-82
2022/01/12 06:20:08;;;;;;;101.65;49.17;;;0.40;99.90;;;;;;4931758;29;20402;-83
2022/01/12 06:22:35;;;;;;;100.13;49.17;;;0.50;99.90;;;;;;4933225;29;20378;-82
2022/01/12 06:25:02;;;;;;;98.95;49.28;;;0.50;99.90;;;;;;4933111;29;20421;-82
2022/01/12 06:27:30;;;;;;;107.00;51.17;;;0.50;99.90;;;;;;4931820;29;20381;-81
2022/01/12 06:31:10;;;;;;;109.53;52.05;;;0.40;99.90;;;;;;4947532;28;20429;-81
2022/01/12 06:32:51;;;;;;;102.47;50.92;;;0.40;99.90;;;;;;4932629;29;20877;-81
2022/01/12 06:35:17;;;;;;;102.40;51.17;;;0.40;99.90;;;;;;4932978;29;20483;-81
2022/01/12 06:37:42;;;;;;;101.60;49.73;;;0.40;99.90;;;;;;4931540;29;20405;-81
2022/01/12 06:40:10;;;;;;;108.87;51.40;;;0.40;99.90;;;;;;4931018;29;20431;-81
2022/01/12 06:42:36;;;;;;;103.20;51.33;;;0.40;99.90;;;;;;4937396;28;20386;-84
2022/01/12 06:45:02;;;;;;;116.70;53.30;;;0.40;99.90;;;;;;4959533;29;20465;-81
2022/01/12 06:47:27;;;;;;;115.93;52.30;;;0.40;99.90;;;;;;4938344;29;20404;-83
2022/01/12 06:49:53;;;;;;;109.82;52.17;;;0.30;99.90;;;;;;4928386;29;20416;-81
2022/01/12 06:52:18;;;;;;;110.00;51.83;;;0.40;99.90;;;;;;4925377;29;20448;-82
2022/01/12 06:54:44;;;;;;;108.77;50.17;;;0.40;99.90;;;;;;4932912;29;20382;-82
2022/01/12 06:57:10;;;;;;;116.57;54.67;;;0.40;99.90;;;;;;4931403;29;20398;-82
2022/01/12 06:59:36;;;;;;;111.17;52.40;;;0.40;99.90;;;;;;4932087;28;20947;-83
2022/01/12 07:02:02;;;;;;;114.10;53.42;;;0.40;99.90;;;;;;4932118;29;20485;-81
2022/01/12 07:04:29;;;;;;;120.03;54.58;;;0.50;99.90;;;;;;4927709;29;20415;-83
2022/01/12 07:06:54;;;;;;;110.80;53.50;;;0.50;99.90;;;;;;4927775;29;20398;-81
2022/01/12 07:09:20;;;;;;;115.97;52.15;;;0.50;99.90;;;;;;4915333;29;20394;-80
2022/01/12 07:11:47;;;;;;;108.88;52.55;;;0.50;99.90;;;;;;4932577;29;20425;-81
2022/01/12 07:14:13;;;;;;;111.20;52.30;;;0.60;99.90;;;;;;4932017;28;20406;-82
2022/01/12 07:16:39;;;;;;;102.83;50.00;;;0.60;99.90;;;;;;4930824;29;20397;-82
2022/01/12 07:19:05;;;;;;;107.73;51.73;;;0.70;99.90;;;;;;4931730;29;20748;-82
2022/01/12 07:21:30;;;;;;;97.13;49.10;;;0.70;99.90;;;;;;4931078;29;20401;-82
2022/01/12 07:23:56;;;;;;;105.97;50.05;;;0.80;99.90;;;;;;4932268;29;20397;-84
2022/01/12 07:26:23;;;;;;;100.07;48.83;;;0.80;99.90;;;;;;4931058;29;20410;-81
2022/01/12 07:28:50;;;;;;;92.22;46.65;;;0.80;99.90;;;;;;4930255;29;20414;-81
2022/01/12 07:31:16;;;;;;;88.47;45.53;;;0.90;99.90;;;;;;4932093;29;20871;-82
2022/01/12 07:33:42;;;;;;;89.57;46.00;;;0.90;99.90;;;;;;4931842;29;20444;-82
2022/01/12 07:36:07;;;;;;;90.45;46.60;;;1.00;99.90;;;;;;4931805;29;20873;-82
2022/01/12 07:38:33;;;;;;;91.30;45.30;;;1.00;99.90;;;;;;4931626;29;20390;-83
2022/01/12 07:40:59;;;;;;;83.53;43.77;;;1.00;99.90;;;;;;4931655;29;20872;-83
2022/01/12 07:43:24;;;;;;;90.20;44.83;;;1.00;99.90;;;;;;4927307;29;20392;-82
2022/01/12 07:45:50;;;;;;;79.25;41.92;;;1.00;99.90;;;;;;4917910;29;20418;-82
2022/01/12 07:48:16;;;;;;;76.88;41.88;;;1.10;99.90;;;;;;4930993;29;20393;-82
2022/01/12 07:50:44;;;;;;;81.22;42.65;;;1.20;99.90;;;;;;4930970;29;20421;-83
2022/01/12 07:53:10;;;;;;;77.75;40.78;;;1.20;99.90;;;;;;4931572;29;20492;-83
2022/01/12 07:55:40;;;;;;;78.80;41.92;;;1.30;99.90;;;;;;4929441;29;22275;-82
2022/01/12 07:58:05;;;;;;;81.77;42.63;;;1.30;99.90;;;;;;4930734;29;20386;-82
2022/01/12 08:00:31;;;;;;;81.47;44.17;;;1.40;99.90;;;;;;4946383;28;20489;-82
2022/01/12 08:02:57;;;;;;;84.18;44.35;;;1.20;99.90;;;;;;4930634;29;20397;-82
2022/01/12 08:05:23;;;;;;;81.40;43.67;;;1.20;99.90;;;;;;4929601;29;20734;-81
2022/01/12 08:07:49;;;;;;;83.32;43.80;;;1.20;99.90;;;;;;4936748;29;20396;-82
2022/01/12 08:10:16;;;;;;;81.30;42.63;;;1.30;99.90;;;;;;4950444;29;20468;-81
2022/01/12 08:12:42;;;;;;;79.18;43.13;;;1.40;99.90;;;;;;4948808;28;20502;-83
2022/01/12 08:15:09;;;;;;;76.40;41.33;;;1.40;99.90;;;;;;4950784;29;20456;-81
2022/01/12 08:17:35;;;;;;;77.22;41.92;;;1.50;99.90;;;;;;4931670;29;20422;-81
2022/01/12 08:20:02;;;;;;;73.50;42.17;;;1.50;99.90;;;;;;4950221;29;20578;-82
2022/01/12 08:22:31;;;;;;;72.03;40.63;;;1.60;99.90;;;;;;4934641;28;20394;-82
2022/01/12 08:24:57;;;;;;;66.43;39.25;;;1.70;99.90;;;;;;4932915;29;20547;-83
2022/01/12 08:27:23;;;;;;;73.55;41.20;;;1.80;99.90;;;;;;4932058;29;20403;-82
2022/01/12 08:29:50;;;;;;;67.80;39.67;;;1.90;99.90;;;;;;4935054;29;20414;-82
2022/01/12 08:32:16;;;;;;;70.37;40.50;;;1.90;99.90;;;;;;4934620;29;20397;-83
2022/01/12 08:34:42;;;;;;;69.22;39.55;;;1.90;99.90;;;;;;4934877;29;20394;-84
2022/01/12 08:37:07;;;;;;;69.82;40.40;;;2.00;99.90;;;;;;4933392;29;20392;-81
2022/01/12 08:39:33;;;;;;;65.73;37.07;;;2.00;99.90;;;;;;4935163;29;20944;-82
2022/01/12 08:41:59;;;;;;;67.50;40.10;;;2.10;99.90;;;;;;4933387;29;20992;-83
2022/01/12 08:44:25;;;;;;;68.10;40.00;;;2.10;99.90;;;;;;4933033;28;20390;-83
2022/01/12 08:46:50;;;;;;;71.30;40.72;;;2.20;99.90;;;;;;4934181;29;20392;-81
2022/01/12 08:49:16;;;;;;;73.90;41.90;;;2.20;99.90;;;;;;4934387;29;20396;-81
2022/01/12 08:51:41;;;;;;;65.25;39.97;;;2.20;99.90;;;;;;4948938;29;20418;-81
2022/01/12 08:54:07;;;;;;;73.90;41.37;;;2.20;99.90;;;;;;4934377;29;20422;-82
2022/01/12 08:56:35;;;;;;;73.23;42.93;;;2.20;99.90;;;;;;4948635;29;20390;-81
2022/01/12 08:59:01;;;;;;;79.03;45.67;;;2.20;99.90;;;;;;4933198;29;20409;-81
2022/01/12 09:01:26;;;;;;;73.20;41.67;;;2.20;99.90;;;;;;4932999;29;20788;-83
2022/01/12 09:03:52;;;;;;;71.32;42.60;;;2.10;99.90;;;;;;4934297;29;20955;-82
2022/01/12 09:06:18;;;;;;;68.70;40.25;;;2.10;99.90;;;;;;4933025;29;20404;-83
2022/01/12 09:08:45;;;;;;;67.35;41.10;;;2.20;99.90;;;;;;4930828;29;20386;-81
2022/01/12 09:11:14;;;;;;;65.50;38.30;;;2.30;99.90;;;;;;4932815;29;20417;-82
2022/01/12 09:13:40;;;;;;;70.13;40.53;;;2.30;99.90;;;;;;4931997;28;20780;-81
2022/01/12 09:16:08;;;;;;;67.68;39.97;;;2.40;99.90;;;;;;4933258;29;20398;-81
2022/01/12 09:18:34;;;;;;;71.82;40.88;;;2.50;99.90;;;;;;4932568;29;20765;-82
2022/01/12 09:21:00;;;;;;;67.72;39.03;;;2.50;99.90;;;;;;4933305;29;20808;-82
2022/01/12 09:23:26;;;;;;;67.93;39.07;;;2.60;99.90;;;;;;4933457;29;20386;-83
2022/01/12 09:25:52;;;;;;;69.00;39.27;;;2.60;99.90;;;;;;4932569;29;20385;-81
2022/01/12 09:28:17;;;;;;;66.60;39.75;;;2.70;99.90;;;;;;4934949;29;20382;-81
2022/01/12 09:30:43;;;;;;;62.78;35.92;;;2.90;99.90;;;;;;4932700;28;20945;-83
2022/01/12 09:33:09;;;;;;;64.03;39.35;;;3.00;99.90;;;;;;4928712;29;20409;-81
2022/01/12 09:35:35;;;;;;;59.40;36.87;;;3.10;99.90;;;;;;4933704;29;20487;-82
2022/01/12 09:38:01;;;;;;;58.80;38.00;;;3.10;99.90;;;;;;4931997;29;20891;-83
2022/01/12 09:40:26;;;;;;;62.70;38.00;;;3.10;99.90;;;;;;4933154;29;20903;-81
2022/01/12 09:42:53;;;;;;;60.08;37.80;;;3.20;99.90;;;;;;4932342;29;20421;-82
2022/01/12 09:45:20;;;;;;;64.90;39.78;;;3.40;99.90;;;;;;4931715;28;20464;-81
2022/01/12 09:47:49;;;;;;;63.08;39.10;;;3.40;99.90;;;;;;4935475;29;20572;-82
2022/01/12 09:50:18;;;;;;;61.80;38.65;;;3.40;99.90;;;;;;4934904;29;20906;-81
2022/01/12 09:52:43;;;;;;;59.63;36.85;;;3.40;99.90;;;;;;4933718;29;20386;-83
2022/01/12 09:55:10;;;;;;;64.05;38.38;;;3.30;99.90;;;;;;4934143;29;20951;-82
2022/01/12 09:57:37;;;;;;;59.13;37.05;;;3.20;99.90;;;;;;4932819;29;20404;-82
2022/01/12 10:00:07;;;;;;;60.57;37.37;;;3.30;99.90;;;;;;4933393;28;20421;-82
2022/01/12 10:02:33;;;;;;;58.65;36.53;;;3.30;99.90;;;;;;4932310;29;20983;-83
2022/01/12 10:05:04;;;;;;;61.92;37.85;;;3.40;99.90;;;;;;4929092;29;20447;-82
2022/01/12 10:07:30;;;;;;;57.78;36.10;;;3.40;99.90;;;;;;4932480;29;20396;-82
2022/01/12 10:10:00;;;;;;;58.27;35.70;;;3.30;99.90;;;;;;4952557;28;20491;-83
2022/01/12 10:12:27;;;;;;;55.97;35.55;;;3.30;99.90;;;;;;4943330;28;20433;-82
2022/01/12 10:15:01;;;;;;;56.42;35.35;;;3.30;99.90;;;;;;4932222;29;20968;-82
2022/01/12 10:17:34;;;;;;;54.65;33.83;;;3.40;99.90;;;;;;4930479;29;20967;-82
2022/01/12 10:20:22;;;;;;;54.95;34.25;;;3.40;99.90;;;;;;4931616;29;20406;-81
2022/01/12 10:23:00;;;;;;;53.20;34.05;;;3.40;99.90;;;;;;4928350;29;20742;-81
2022/01/12 10:25:28;;;;;;;55.85;34.00;;;3.50;99.90;;;;;;4929139;29;20398;-82
2022/01/12 10:27:54;;;;;;;52.85;33.20;;;3.60;99.90;;;;;;4926929;28;20405;-81
2022/01/12 10:30:28;;;;;;;50.35;33.00;;;3.60;99.90;;;;;;4931800;29;20418;-82
2022/01/12 10:33:03;;;;;;;51.75;32.60;;;3.60;99.90;;;;;;4932367;29;20413;-81
2022/01/12 10:35:31;;;;;;;52.58;33.17;;;3.70;99.90;;;;;;4932914;29;20425;-83
2022/01/12 10:38:11;;;;;;;49.72;32.25;;;3.80;99.90;;;;;;4932071;29;20905;-82
2022/01/12 10:40:45;;;;;;;52.47;34.40;;;3.80;99.90;;;;;;4927415;29;20477;-81
2022/01/12 10:43:31;;;;;;;51.63;34.05;;;3.90;99.90;;;;;;4928875;29;20393;-82
2022/01/12 10:45:58;;;;;;;54.10;33.22;;;3.80;99.90;;;;;;4931266;28;20410;-82
2022/01/12 10:48:25;;;;;;;55.28;34.65;;;3.80;99.90;;;;;;4929688;29;20812;-82
2022/01/12 10:50:59;;;;;;;53.67;34.33;;;3.80;99.90;;;;;;4932047;29;20421;-80
2022/01/12 10:53:33;;;;;;;52.60;33.83;;;3.80;99.90;;;;;;4932929;29;20378;-81
2022/01/12 10:56:01;;;;;;;56.70;35.90;;;3.70;99.90;;;;;;4934433;29;20429;-80
2022/01/12 10:58:27;;;;;;;54.90;34.95;;;3.70;99.90;;;;;;4935334;29;20394;-79
2022/01/12 11:00:53;;;;;;;50.97;33.20;;;3.70;99.90;;;;;;4931531;28;20432;-81
2022/01/12 11:03:18;;;;;;;50.75;33.08;;;3.80;99.90;;;;;;4941636;29;20401;-81
2022/01/12 11:05:44;;;;;;;51.47;32.60;;;3.70;99.90;;;;;;4933845;29;20401;-82
2022/01/12 11:08:11;;;;;;;53.90;33.35;;;3.90;99.90;;;;;;4931466;29;20396;-82
2022/01/12 11:10:38;;;;;;;52.13;33.53;;;3.80;99.90;;;;;;4920202;29;20951;-82
2022/01/12 11:13:04;;;;;;;56.50;35.38;;;3.90;99.90;;;;;;4931558;28;20402;-83
2022/01/12 11:15:33;;;;;;;57.20;33.75;;;3.90;99.90;;;;;;4932096;29;20424;-81
2022/01/12 11:17:59;;;;;;;54.05;33.72;;;3.90;99.90;;;;;;4930238;29;20874;-82
2022/01/12 11:20:27;;;;;;;57.90;35.87;;;4.00;99.90;;;;;;4928268;29;20481;-83
2022/01/12 11:22:53;;;;;;;60.83;36.42;;;4.00;99.90;;;;;;4931591;29;20461;-81
2022/01/12 11:25:22;;;;;;;62.43;37.17;;;3.90;99.90;;;;;;4931831;29;20884;-82
2022/01/12 11:28:02;;;;;;;63.65;38.15;;;3.90;99.90;;;;;;4931129;29;20496;-82
2022/01/12 11:30:28;;;;;;;73.70;39.83;;;4.00;99.90;;;;;;4931310;29;20426;-83
2022/01/12 11:33:02;;;;;;;61.90;36.63;;;4.00;99.90;;;;;;4929185;29;20417;-81
2022/01/12 11:35:33;;;;;;;69.88;39.38;;;4.10;99.90;;;;;;4929968;29;20456;-81
2022/01/12 11:38:01;;;;;;;61.28;37.00;;;4.10;99.90;;;;;;4931054;29;20386;-80
2022/01/12 11:40:36;;;;;;;65.33;37.03;;;4.20;99.90;;;;;;4929325;29;20501;-81
2022/01/12 11:43:03;;;;;;;77.03;40.58;;;4.20;99.90;;;;;;4932227;28;20553;-81
2022/01/12 11:45:29;;;;;;;71.75;39.75;;;4.20;99.90;;;;;;4929824;29;20452;-82
2022/01/12 11:47:54;;;;;;;71.60;38.55;;;4.20;99.90;;;;;;4931075;29;20390;-81
2022/01/12 11:50:20;;;;;;;78.05;41.63;;;4.20;99.90;;;;;;4946053;29;20413;-81
2022/01/12 11:52:46;;;;;;;88.23;44.23;;;4.20;99.90;;;;;;4943707;29;20421;-82
2022/01/12 11:55:17;;;;;;;84.07;44.20;;;4.10;99.90;;;;;;4931109;29;20428;-82
2022/01/12 11:57:48;;;;;;;75.53;42.15;;;4.20;99.90;;;;;;4935226;29;20402;-82
2022/01/12 12:00:20;;;;;;;85.53;45.03;;;4.20;99.90;;;;;;4944617;29;20390;-81
2022/01/12 12:02:49;;;;;;;85.55;45.88;;;4.30;99.90;;;;;;4931176;29;20424;-83
2022/01/12 12:05:31;;;;;;;90.45;46.58;;;4.40;99.90;;;;;;4930767;29;20442;-83
2022/01/12 12:08:04;;;;;;;94.10;49.28;;;4.40;99.90;;;;;;4929857;29;20405;-81
2022/01/12 12:10:41;;;;;;;95.53;50.67;;;4.40;99.90;;;;;;4929003;29;20440;-82
2022/01/12 12:13:11;;;;;;;89.05;47.90;;;4.50;99.90;;;;;;4923374;29;20473;-83
2022/01/12 12:15:36;;;;;;;100.15;51.63;;;4.40;99.90;;;;;;4930255;29;20403;-82
2022/01/12 12:18:04;;;;;;;96.88;50.58;;;4.40;99.90;;;;;;4930866;29;20429;-83
2022/01/12 12:20:31;;;;;;;94.78;50.38;;;4.50;99.90;;;;;;4926921;29;20413;-80
2022/01/12 12:22:57;;;;;;;93.72;50.80;;;4.40;99.90;;;;;;4929147;29;20773;-81
2022/01/12 12:25:25;;;;;;;105.07;53.53;;;4.40;99.90;;;;;;4931277;29;20401;-80
2022/01/12 12:27:54;;;;;;;109.47;54.80;;;4.40;99.90;;;;;;4929211;29;20394;-80
2022/01/12 12:30:22;;;;;;;105.70;54.70;;;4.30;99.90;;;;;;4929371;29;20413;-83
2022/01/12 12:32:50;;;;;;;114.88;57.47;;;4.20;99.90;;;;;;4925510;28;20420;-84
2022/01/12 12:35:19;;;;;;;112.90;55.83;;;4.10;99.90;;;;;;4930492;29;20390;-82
2022/01/12 12:37:56;;;;;;;114.23;56.27;;;4.10;99.90;;;;;;4930847;29;20441;-82
2022/01/12 12:40:27;;;;;;;111.13;55.78;;;4.20;99.90;;;;;;4931122;29;20445;-82
2022/01/12 12:43:22;;;;;;;121.05;57.85;;;4.20;99.90;;;;;;4933466;28;20408;-81
2022/01/12 12:45:49;;;;;;;110.80;56.90;;;4.20;99.90;;;;;;4938694;29;20892;-83
2022/01/12 12:48:17;;;;;;;118.80;58.65;;;4.20;99.90;;;;;;4930106;29;20484;-81
2022/01/12 12:50:44;;;;;;;115.25;56.80;;;4.30;99.90;;;;;;4928980;29;20445;-82
2022/01/12 12:53:10;;;;;;;105.97;55.80;;;4.40;99.90;;;;;;4929776;29;20918;-82
2022/01/12 12:55:38;;;;;;;112.65;57.05;;;4.40;99.90;;;;;;4930005;29;20441;-82
2022/01/12 12:58:05;;;;;;;111.68;58.00;;;4.40;99.90;;;;;;4929761;29;20424;-82
2022/01/12 13:00:32;;;;;;;109.43;55.35;;;4.40;99.90;;;;;;4928913;29;20421;-82
2022/01/12 13:02:59;;;;;;;115.10;57.97;;;4.40;99.90;;;;;;4920185;28;20413;-82
2022/01/12 13:05:31;;;;;;;108.80;57.47;;;4.50;99.90;;;;;;4931514;29;20382;-83
2022/01/12 13:07:57;;;;;;;112.05;59.13;;;4.50;99.90;;;;;;4933764;29;20402;-82
2022/01/12 13:10:26;;;;;;;106.25;57.00;;;4.50;99.90;;;;;;4932158;29;20474;-81
2022/01/12 13:12:58;;;;;;;119.10;59.30;;;4.50;99.90;;;;;;4933644;28;20600;-82
2022/01/12 13:15:32;;;;;;;114.07;58.95;;;4.50;99.90;;;;;;4931752;29;20441;-82
2022/01/12 13:18:09;;;;;;;105.87;56.23;;;4.60;99.90;;;;;;4931145;29;20405;-81
2022/01/12 13:23:22;;;;;;;108.78;58.03;;;4.60;99.90;;;;;;4931978;29;20416;-83
2022/01/12 13:25:49;;;;;;;114.97;58.08;;;4.50;99.90;;;;;;4933018;29;20409;-82
2022/01/12 13:28:18;;;;;;;106.93;58.30;;;4.60;99.90;;;;;;4931029;29;20836;-82
2022/01/12 13:30:51;;;;;;;115.32;59.63;;;4.60;99.90;;;;;;4933941;29;20457;-82
2022/01/12 13:33:42;;;;;;;105.75;57.47;;;4.60;99.90;;;;;;4933226;29;20454;-81
2022/01/12 13:36:18;;;;;;;107.75;59.17;;;4.70;99.90;;;;;;4918175;29;20488;-81
2022/01/12 13:39:05;;;;;;;113.43;59.38;;;4.60;99.90;;;;;;4928238;29;20407;-82
2022/01/12 13:41:38;;;;;;;121.13;62.28;;;4.50;99.90;;;;;;4933096;29;20996;-82
2022/01/12 13:44:11;;;;;;;103.28;55.10;;;4.50;99.90;;;;;;4951094;29;20389;-81
2022/01/12 13:47:03;;;;;;;110.03;57.85;;;4.50;99.90;;;;;;4946942;29;20386;-82
2022/01/12 13:49:29;;;;;;;94.30;54.92;;;4.60;99.90;;;;;;4934169;29;20944;-83
2022/01/12 13:52:02;;;;;;;106.88;58.22;;;4.60;99.90;;;;;;4933815;29;20417;-83
2022/01/12 13:54:37;;;;;;;104.78;56.90;;;4.60;99.90;;;;;;4932936;29;20386;-81